sensor_id;sensor_type;location;lat;lon;timestamp;temperature;humidity
65374;SHT31;52070;53.760;9.678;2024-03-25T00:01:45;5.97;87.67
65374;SHT31;52070;53.760;9.678;2024-03-25T00:04:12;5.98;88.17
65374;SHT31;52070;53.760;9.678;2024-03-25T00:06:37;6.01;88.47
65374;SHT31;52070;53.760;9.678;2024-03-25T00:09:04;5.98;88.63
65374;SHT31;52070;53.760;9.678;2024-03-25T00:11:33;5.89;88.88
65374;SHT31;52070;53.760;9.678;2024-03-25T00:14:00;5.90;89.09
65374;SHT31;52070;53.760;9.678;2024-03-25T00:16:26;5.93;89.10
65374;SHT31;52070;53.760;9.678;2024-03-25T00:18:53;5.93;89.20
65374;SHT31;52070;53.760;9.678;2024-03-25T00:21:18;5.91;89.36
65374;SHT31;52070;53.760;9.678;2024-03-25T00:23:45;5.94;89.43
65374;SHT31;52070;53.760;9.678;2024-03-25T00:26:11;5.95;89.51
65374;SHT31;52070;53.760;9.678;2024-03-25T00:28:38;5.98;89.46
65374;SHT31;52070;53.760;9.678;2024-03-25T00:31:04;5.97;89.46
65374;SHT31;52070;53.760;9.678;2024-03-25T00:33:31;6.00;89.54
65374;SHT31;52070;53.760;9.678;2024-03-25T00:35:59;6.02;89.45
65374;SHT31;52070;53.760;9.678;2024-03-25T00:38:26;6.00;89.44
65374;SHT31;52070;53.760;9.678;2024-03-25T00:40:52;5.95;89.49
65374;SHT31;52070;53.760;9.678;2024-03-25T00:43:19;5.95;89.60
65374;SHT31;52070;53.760;9.678;2024-03-25T00:45:45;6.00;89.66
65374;SHT31;52070;53.760;9.678;2024-03-25T00:48:12;5.97;89.56
65374;SHT31;52070;53.760;9.678;2024-03-25T00:50:38;5.98;89.50
65374;SHT31;52070;53.760;9.678;2024-03-25T00:53:05;5.93;89.51
65374;SHT31;52070;53.760;9.678;2024-03-25T00:55:31;6.00;89.61
65374;SHT31;52070;53.760;9.678;2024-03-25T00:57:58;5.95;89.61
65374;SHT31;52070;53.760;9.678;2024-03-25T01:00:24;6.01;89.67
65374;SHT31;52070;53.760;9.678;2024-03-25T01:02:51;6.04;89.68
65374;SHT31;52070;53.760;9.678;2024-03-25T01:05:16;6.02;89.65
65374;SHT31;52070;53.760;9.678;2024-03-25T01:07:43;6.02;89.59
65374;SHT31;52070;53.760;9.678;2024-03-25T01:10:09;5.98;89.66
65374;SHT31;52070;53.760;9.678;2024-03-25T01:12:36;6.00;89.69
65374;SHT31;52070;53.760;9.678;2024-03-25T01:15:02;6.01;89.66
65374;SHT31;52070;53.760;9.678;2024-03-25T01:17:31;5.95;89.66
65374;SHT31;52070;53.760;9.678;2024-03-25T01:19:56;6.00;89.62
65374;SHT31;52070;53.760;9.678;2024-03-25T01:22:23;6.00;89.62
65374;SHT31;52070;53.760;9.678;2024-03-25T01:24:49;6.00;89.68
65374;SHT31;52070;53.760;9.678;2024-03-25T01:27:16;6.01;89.66
65374;SHT31;52070;53.760;9.678;2024-03-25T01:29:42;6.02;89.72
65374;SHT31;52070;53.760;9.678;2024-03-25T01:32:09;6.02;89.80
65374;SHT31;52070;53.760;9.678;2024-03-25T01:34:35;6.07;89.84
65374;SHT31;52070;53.760;9.678;2024-03-25T01:37:01;6.05;89.84
65374;SHT31;52070;53.760;9.678;2024-03-25T01:39:27;6.04;89.79
65374;SHT31;52070;53.760;9.678;2024-03-25T01:41:54;6.05;89.88
65374;SHT31;52070;53.760;9.678;2024-03-25T01:44:20;6.05;89.88
65374;SHT31;52070;53.760;9.678;2024-03-25T01:46:47;6.07;89.84
65374;SHT31;52070;53.760;9.678;2024-03-25T01:49:13;6.08;89.89
65374;SHT31;52070;53.760;9.678;2024-03-25T01:51:41;6.02;90.01
65374;SHT31;52070;53.760;9.678;2024-03-25T01:54:08;5.95;90.11
65374;SHT31;52070;53.760;9.678;2024-03-25T01:56:36;5.90;90.10
65374;SHT31;52070;53.760;9.678;2024-03-25T01:59:02;5.87;90.27
65374;SHT31;52070;53.760;9.678;2024-03-25T02:01:29;5.86;90.55
65374;SHT31;52070;53.760;9.678;2024-03-25T02:03:55;5.83;90.83
65374;SHT31;52070;53.760;9.678;2024-03-25T02:06:24;5.78;91.02
65374;SHT31;52070;53.760;9.678;2024-03-25T02:08:52;5.83;91.24
65374;SHT31;52070;53.760;9.678;2024-03-25T02:11:20;5.80;91.20
65374;SHT31;52070;53.760;9.678;2024-03-25T02:13:46;5.71;91.16
65374;SHT31;52070;53.760;9.678;2024-03-25T02:16:13;5.70;91.00
65374;SHT31;52070;53.760;9.678;2024-03-25T02:18:39;5.69;90.91
65374;SHT31;52070;53.760;9.678;2024-03-25T02:21:06;5.67;90.82
65374;SHT31;52070;53.760;9.678;2024-03-25T02:23:32;5.69;90.74
65374;SHT31;52070;53.760;9.678;2024-03-25T02:26:00;5.66;90.59
65374;SHT31;52070;53.760;9.678;2024-03-25T02:28:26;5.64;90.52
65374;SHT31;52070;53.760;9.678;2024-03-25T02:30:53;5.60;90.43
65374;SHT31;52070;53.760;9.678;2024-03-25T02:33:19;5.51;90.45
65374;SHT31;52070;53.760;9.678;2024-03-25T02:35:46;5.56;90.54
65374;SHT31;52070;53.760;9.678;2024-03-25T02:38:12;5.59;90.42
65374;SHT31;52070;53.760;9.678;2024-03-25T02:40:41;5.57;90.31
65374;SHT31;52070;53.760;9.678;2024-03-25T02:43:07;5.53;90.30
65374;SHT31;52070;53.760;9.678;2024-03-25T02:45:34;5.50;90.38
65374;SHT31;52070;53.760;9.678;2024-03-25T02:48:00;5.51;90.28
65374;SHT31;52070;53.760;9.678;2024-03-25T02:50:26;5.57;90.27
65374;SHT31;52070;53.760;9.678;2024-03-25T02:52:53;5.56;90.22
65374;SHT31;52070;53.760;9.678;2024-03-25T02:55:19;5.53;90.20
65374;SHT31;52070;53.760;9.678;2024-03-25T02:57:45;5.51;90.19
65374;SHT31;52070;53.760;9.678;2024-03-25T03:00:12;5.47;90.21
65374;SHT31;52070;53.760;9.678;2024-03-25T03:02:39;5.39;90.25
65374;SHT31;52070;53.760;9.678;2024-03-25T03:05:06;5.35;90.29
65374;SHT31;52070;53.760;9.678;2024-03-25T03:07:32;5.33;90.39
65374;SHT31;52070;53.760;9.678;2024-03-25T03:09:59;5.32;90.42
65374;SHT31;52070;53.760;9.678;2024-03-25T03:12:25;5.27;90.38
65374;SHT31;52070;53.760;9.678;2024-03-25T03:14:51;5.25;90.36
65374;SHT31;52070;53.760;9.678;2024-03-25T03:17:17;5.25;90.28
65374;SHT31;52070;53.760;9.678;2024-03-25T03:19:45;5.30;90.26
65374;SHT31;52070;53.760;9.678;2024-03-25T03:22:10;5.33;90.17
65374;SHT31;52070;53.760;9.678;2024-03-25T03:24:37;5.29;90.05
65374;SHT31;52070;53.760;9.678;2024-03-25T03:27:03;5.30;90.04
65374;SHT31;52070;53.760;9.678;2024-03-25T03:29:30;5.30;89.92
65374;SHT31;52070;53.760;9.678;2024-03-25T03:31:56;5.33;89.84
65374;SHT31;52070;53.760;9.678;2024-03-25T03:34:23;5.30;89.76
65374;SHT31;52070;53.760;9.678;2024-03-25T03:36:49;5.27;89.66
65374;SHT31;52070;53.760;9.678;2024-03-25T03:39:16;5.29;89.53
65374;SHT31;52070;53.760;9.678;2024-03-25T03:41:43;5.23;89.52
65374;SHT31;52070;53.760;9.678;2024-03-25T03:44:09;5.23;89.63
65374;SHT31;52070;53.760;9.678;2024-03-25T03:46:35;5.27;89.59
65374;SHT31;52070;53.760;9.678;2024-03-25T03:49:02;5.23;89.50
65374;SHT31;52070;53.760;9.678;2024-03-25T03:51:28;5.27;89.30
65374;SHT31;52070;53.760;9.678;2024-03-25T03:53:56;5.29;89.16
65374;SHT31;52070;53.760;9.678;2024-03-25T03:56:21;5.33;88.92
65374;SHT31;52070;53.760;9.678;2024-03-25T03:58:48;5.26;88.90
65374;SHT31;52070;53.760;9.678;2024-03-25T04:01:18;5.29;89.01
65374;SHT31;52070;53.760;9.678;2024-03-25T04:03:45;5.26;89.09
65374;SHT31;52070;53.760;9.678;2024-03-25T04:06:12;5.23;89.12
65374;SHT31;52070;53.760;9.678;2024-03-25T04:08:40;5.22;89.15
65374;SHT31;52070;53.760;9.678;2024-03-25T04:11:06;5.12;89.25
65374;SHT31;52070;53.760;9.678;2024-03-25T04:13:34;5.08;89.36
65374;SHT31;52070;53.760;9.678;2024-03-25T04:16:03;5.06;89.60
65374;SHT31;52070;53.760;9.678;2024-03-25T04:18:32;5.06;89.73
65374;SHT31;52070;53.760;9.678;2024-03-25T04:21:00;5.04;89.81
65374;SHT31;52070;53.760;9.678;2024-03-25T04:23:27;5.09;89.85
65374;SHT31;52070;53.760;9.678;2024-03-25T04:26:00;5.12;89.73
65374;SHT31;52070;53.760;9.678;2024-03-25T04:28:28;5.15;89.69
65374;SHT31;52070;53.760;9.678;2024-03-25T04:30:53;5.13;89.40
65374;SHT31;52070;53.760;9.678;2024-03-25T04:33:20;5.05;89.26
65374;SHT31;52070;53.760;9.678;2024-03-25T04:35:47;5.02;89.33
65374;SHT31;52070;53.760;9.678;2024-03-25T04:38:15;4.98;89.39
65374;SHT31;52070;53.760;9.678;2024-03-25T04:40:42;4.99;89.23
65374;SHT31;52070;53.760;9.678;2024-03-25T04:43:08;4.95;88.98
65374;SHT31;52070;53.760;9.678;2024-03-25T04:45:34;4.92;88.92
65374;SHT31;52070;53.760;9.678;2024-03-25T04:48:00;4.86;88.94
65374;SHT31;52070;53.760;9.678;2024-03-25T04:50:26;4.81;88.95
65374;SHT31;52070;53.760;9.678;2024-03-25T04:52:52;4.79;88.95
65374;SHT31;52070;53.760;9.678;2024-03-25T04:55:18;4.95;88.98
65374;SHT31;52070;53.760;9.678;2024-03-25T04:57:43;4.74;88.76
65374;SHT31;52070;53.760;9.678;2024-03-25T05:00:10;4.55;88.66
65374;SHT31;52070;53.760;9.678;2024-03-25T05:02:37;4.37;88.74
65374;SHT31;52070;53.760;9.678;2024-03-25T05:05:03;4.20;89.01
65374;SHT31;52070;53.760;9.678;2024-03-25T05:07:29;4.04;89.49
65374;SHT31;52070;53.760;9.678;2024-03-25T05:09:55;3.93;90.02
65374;SHT31;52070;53.760;9.678;2024-03-25T05:12:21;3.86;90.50
65374;SHT31;52070;53.760;9.678;2024-03-25T05:14:47;3.83;90.96
65374;SHT31;52070;53.760;9.678;2024-03-25T05:17:13;3.83;91.87
65374;SHT31;52070;53.760;9.678;2024-03-25T05:19:39;3.85;91.68
65374;SHT31;52070;53.760;9.678;2024-03-25T05:22:05;3.82;91.74
65374;SHT31;52070;53.760;9.678;2024-03-25T05:24:31;3.83;91.88
65374;SHT31;52070;53.760;9.678;2024-03-25T05:26:57;3.86;91.88
65374;SHT31;52070;53.760;9.678;2024-03-25T05:29:22;3.86;91.90
65374;SHT31;52070;53.760;9.678;2024-03-25T05:31:59;3.87;92.00
65374;SHT31;52070;53.760;9.678;2024-03-25T05:34:26;3.91;92.10
65374;SHT31;52070;53.760;9.678;2024-03-25T05:36:52;3.93;92.19
65374;SHT31;52070;53.760;9.678;2024-03-25T05:39:18;4.00;92.17
65374;SHT31;52070;53.760;9.678;2024-03-25T05:41:44;3.97;92.23
65374;SHT31;52070;53.760;9.678;2024-03-25T05:44:10;3.97;92.23
65374;SHT31;52070;53.760;9.678;2024-03-25T05:46:36;3.96;92.20
65374;SHT31;52070;53.760;9.678;2024-03-25T05:49:03;3.96;92.15
65374;SHT31;52070;53.760;9.678;2024-03-25T05:51:30;4.00;92.23
65374;SHT31;52070;53.760;9.678;2024-03-25T05:53:56;4.06;92.47
65374;SHT31;52070;53.760;9.678;2024-03-25T05:56:22;4.16;92.70
65374;SHT31;52070;53.760;9.678;2024-03-25T05:58:48;4.25;92.99
65374;SHT31;52070;53.760;9.678;2024-03-25T06:01:14;4.34;93.29
65374;SHT31;52070;53.760;9.678;2024-03-25T06:03:40;4.41;93.45
65374;SHT31;52070;53.760;9.678;2024-03-25T06:06:05;4.48;93.51
65374;SHT31;52070;53.760;9.678;2024-03-25T06:08:31;4.55;93.57
65374;SHT31;52070;53.760;9.678;2024-03-25T06:11:01;4.61;93.60
65374;SHT31;52070;53.760;9.678;2024-03-25T06:13:27;4.75;93.62
65374;SHT31;52070;53.760;9.678;2024-03-25T06:15:53;4.86;93.40
65374;SHT31;52070;53.760;9.678;2024-03-25T06:18:19;4.96;92.98
65374;SHT31;52070;53.760;9.678;2024-03-25T06:20:45;5.02;92.48
65374;SHT31;52070;53.760;9.678;2024-03-25T06:23:22;5.05;91.84
65374;SHT31;52070;53.760;9.678;2024-03-25T06:25:48;5.12;91.25
65374;SHT31;52070;53.760;9.678;2024-03-25T06:28:14;5.13;90.97
65374;SHT31;52070;53.760;9.678;2024-03-25T06:30:40;5.19;90.99
65374;SHT31;52070;53.760;9.678;2024-03-25T06:33:25;5.25;91.03
65374;SHT31;52070;53.760;9.678;2024-03-25T06:36:09;5.29;91.22
65374;SHT31;52070;53.760;9.678;2024-03-25T06:38:35;5.33;91.40
65374;SHT31;52070;53.760;9.678;2024-03-25T06:41:01;5.35;91.58
65374;SHT31;52070;53.760;9.678;2024-03-25T06:43:27;5.35;91.75
65374;SHT31;52070;53.760;9.678;2024-03-25T06:45:52;5.32;91.81
65374;SHT31;52070;53.760;9.678;2024-03-25T06:48:18;5.27;91.61
65374;SHT31;52070;53.760;9.678;2024-03-25T06:50:57;5.35;91.28
65374;SHT31;52070;53.760;9.678;2024-03-25T06:53:24;5.39;91.19
65374;SHT31;52070;53.760;9.678;2024-03-25T06:55:57;5.37;91.32
65374;SHT31;52070;53.760;9.678;2024-03-25T06:58:25;5.42;91.35
65374;SHT31;52070;53.760;9.678;2024-03-25T07:00:52;5.51;91.37
65374;SHT31;52070;53.760;9.678;2024-03-25T07:03:20;5.56;91.47
65374;SHT31;52070;53.760;9.678;2024-03-25T07:05:47;5.73;91.38
65374;SHT31;52070;53.760;9.678;2024-03-25T07:08:13;5.57;90.77
65374;SHT31;52070;53.760;9.678;2024-03-25T07:10:41;5.64;90.65
65374;SHT31;52070;53.760;9.678;2024-03-25T07:13:07;5.70;90.82
65374;SHT31;52070;53.760;9.678;2024-03-25T07:15:33;5.86;90.94
65374;SHT31;52070;53.760;9.678;2024-03-25T07:17:59;5.87;90.95
65374;SHT31;52070;53.760;9.678;2024-03-25T07:20:26;5.93;90.88
65374;SHT31;52070;53.760;9.678;2024-03-25T07:22:55;5.98;90.86
65374;SHT31;52070;53.760;9.678;2024-03-25T07:25:25;6.08;91.02
65374;SHT31;52070;53.760;9.678;2024-03-25T07:27:51;6.02;91.13
65374;SHT31;52070;53.760;9.678;2024-03-25T07:30:18;5.90;90.79
65374;SHT31;52070;53.760;9.678;2024-03-25T07:32:44;6.00;90.75
65374;SHT31;52070;53.760;9.678;2024-03-25T07:35:11;6.10;90.85
65374;SHT31;52070;53.760;9.678;2024-03-25T07:37:37;6.21;90.80
65374;SHT31;52070;53.760;9.678;2024-03-25T07:40:03;6.32;90.62
65374;SHT31;52070;53.760;9.678;2024-03-25T07:42:29;6.35;90.19
65374;SHT31;52070;53.760;9.678;2024-03-25T07:44:56;6.38;90.09
65374;SHT31;52070;53.760;9.678;2024-03-25T07:47:22;6.46;89.81
65374;SHT31;52070;53.760;9.678;2024-03-25T07:49:48;6.44;88.94
65374;SHT31;52070;53.760;9.678;2024-03-25T07:52:14;6.44;88.59
65374;SHT31;52070;53.760;9.678;2024-03-25T07:54:39;6.38;88.36
65374;SHT31;52070;53.760;9.678;2024-03-25T07:57:05;6.42;88.29
65374;SHT31;52070;53.760;9.678;2024-03-25T07:59:31;6.52;88.19
65374;SHT31;52070;53.760;9.678;2024-03-25T08:01:57;6.53;88.20
65374;SHT31;52070;53.760;9.678;2024-03-25T08:04:23;6.65;88.53
65374;SHT31;52070;53.760;9.678;2024-03-25T08:06:49;6.66;88.40
65374;SHT31;52070;53.760;9.678;2024-03-25T08:09:15;6.62;88.09
65374;SHT31;52070;53.760;9.678;2024-03-25T08:11:41;6.59;88.36
65374;SHT31;52070;53.760;9.678;2024-03-25T08:14:08;6.52;88.67
65374;SHT31;52070;53.760;9.678;2024-03-25T08:16:34;6.39;89.03
65374;SHT31;52070;53.760;9.678;2024-03-25T08:19:00;6.22;88.84
65374;SHT31;52070;53.760;9.678;2024-03-25T08:21:25;6.14;88.80
65374;SHT31;52070;53.760;9.678;2024-03-25T08:23:51;6.08;88.96
65374;SHT31;52070;53.760;9.678;2024-03-25T08:26:17;5.98;89.01
65374;SHT31;52070;53.760;9.678;2024-03-25T08:28:43;5.97;88.47
65374;SHT31;52070;53.760;9.678;2024-03-25T08:31:09;6.17;88.73
65374;SHT31;52070;53.760;9.678;2024-03-25T08:33:35;6.34;89.38
65374;SHT31;52070;53.760;9.678;2024-03-25T08:36:01;6.45;89.48
65374;SHT31;52070;53.760;9.678;2024-03-25T08:38:27;6.52;88.54
65374;SHT31;52070;53.760;9.678;2024-03-25T08:40:53;6.66;87.97
65374;SHT31;52070;53.760;9.678;2024-03-25T08:43:19;6.75;87.87
65374;SHT31;52070;53.760;9.678;2024-03-25T08:45:45;6.89;88.03
65374;SHT31;52070;53.760;9.678;2024-03-25T08:48:11;7.11;87.97
65374;SHT31;52070;53.760;9.678;2024-03-25T08:50:37;7.21;87.95
65374;SHT31;52070;53.760;9.678;2024-03-25T08:53:04;7.11;85.15
65374;SHT31;52070;53.760;9.678;2024-03-25T08:55:30;7.06;82.19
65374;SHT31;52070;53.760;9.678;2024-03-25T08:57:57;7.03;82.47
65374;SHT31;52070;53.760;9.678;2024-03-25T09:00:25;7.01;82.83
65374;SHT31;52070;53.760;9.678;2024-03-25T09:02:51;7.14;83.88
65374;SHT31;52070;53.760;9.678;2024-03-25T09:05:17;7.17;83.76
65374;SHT31;52070;53.760;9.678;2024-03-25T09:07:50;7.26;83.43
65374;SHT31;52070;53.760;9.678;2024-03-25T09:10:16;7.54;83.53
65374;SHT31;52070;53.760;9.678;2024-03-25T09:13:01;7.70;82.41
65374;SHT31;52070;53.760;9.678;2024-03-25T09:15:27;7.77;82.10
65374;SHT31;52070;53.760;9.678;2024-03-25T09:17:52;7.74;79.19
65374;SHT31;52070;53.760;9.678;2024-03-25T09:20:18;7.70;77.28
65374;SHT31;52070;53.760;9.678;2024-03-25T09:22:44;7.81;78.54
65374;SHT31;52070;53.760;9.678;2024-03-25T09:25:11;7.85;77.23
65374;SHT31;52070;53.760;9.678;2024-03-25T09:27:37;7.85;77.40
65374;SHT31;52070;53.760;9.678;2024-03-25T09:30:03;8.01;77.54
65374;SHT31;52070;53.760;9.678;2024-03-25T09:32:29;8.17;76.19
65374;SHT31;52070;53.760;9.678;2024-03-25T09:34:57;8.28;74.53
65374;SHT31;52070;53.760;9.678;2024-03-25T09:37:23;8.61;75.81
65374;SHT31;52070;53.760;9.678;2024-03-25T09:39:49;8.81;76.12
65374;SHT31;52070;53.760;9.678;2024-03-25T09:42:20;8.84;72.63
65374;SHT31;52070;53.760;9.678;2024-03-25T09:44:47;8.77;71.44
65374;SHT31;52070;53.760;9.678;2024-03-25T09:47:13;8.97;73.21
65374;SHT31;52070;53.760;9.678;2024-03-25T09:49:40;8.81;74.13
65374;SHT31;52070;53.760;9.678;2024-03-25T09:52:07;8.50;73.12
65374;SHT31;52070;53.760;9.678;2024-03-25T09:54:33;8.26;72.67
65374;SHT31;52070;53.760;9.678;2024-03-25T09:57:00;8.10;73.36
65374;SHT31;52070;53.760;9.678;2024-03-25T09:59:27;7.98;72.15
65374;SHT31;52070;53.760;9.678;2024-03-25T10:01:54;7.86;70.68
65374;SHT31;52070;53.760;9.678;2024-03-25T10:04:20;7.91;70.45
65374;SHT31;52070;53.760;9.678;2024-03-25T10:06:46;8.17;70.27
65374;SHT31;52070;53.760;9.678;2024-03-25T10:09:12;8.56;69.88
65374;SHT31;52070;53.760;9.678;2024-03-25T10:11:38;9.08;69.16
65374;SHT31;52070;53.760;9.678;2024-03-25T10:14:04;9.38;67.99
65374;SHT31;52070;53.760;9.678;2024-03-25T10:16:29;9.72;68.59
65374;SHT31;52070;53.760;9.678;2024-03-25T10:18:55;9.58;63.79
65374;SHT31;52070;53.760;9.678;2024-03-25T10:21:21;9.68;66.59
65374;SHT31;52070;53.760;9.678;2024-03-25T10:23:48;10.29;66.76
65374;SHT31;52070;53.760;9.678;2024-03-25T10:26:31;10.07;64.45
65374;SHT31;52070;53.760;9.678;2024-03-25T10:29:07;9.46;64.25
65374;SHT31;52070;53.760;9.678;2024-03-25T10:31:33;9.51;65.81
65374;SHT31;52070;53.760;9.678;2024-03-25T10:34:00;9.63;64.19
65374;SHT31;52070;53.760;9.678;2024-03-25T10:36:26;9.89;63.47
65374;SHT31;52070;53.760;9.678;2024-03-25T10:38:54;9.52;61.63
65374;SHT31;52070;53.760;9.678;2024-03-25T10:41:21;9.66;63.35
65374;SHT31;52070;53.760;9.678;2024-03-25T10:43:48;9.76;60.23
65374;SHT31;52070;53.760;9.678;2024-03-25T10:46:20;9.90;59.15
65374;SHT31;52070;53.760;9.678;2024-03-25T10:48:52;10.33;59.35
65374;SHT31;52070;53.760;9.678;2024-03-25T10:51:22;10.32;58.61
65374;SHT31;52070;53.760;9.678;2024-03-25T10:53:52;10.14;59.94
65374;SHT31;52070;53.760;9.678;2024-03-25T10:56:21;9.73;61.91
65374;SHT31;52070;53.760;9.678;2024-03-25T10:58:48;9.58;61.86
65374;SHT31;52070;53.760;9.678;2024-03-25T11:01:16;9.82;62.73
65374;SHT31;52070;53.760;9.678;2024-03-25T11:03:43;10.69;62.19
65374;SHT31;52070;53.760;9.678;2024-03-25T11:06:10;10.68;57.92
65374;SHT31;52070;53.760;9.678;2024-03-25T11:08:36;10.21;59.86
65374;SHT31;52070;53.760;9.678;2024-03-25T11:11:02;10.46;57.55
65374;SHT31;52070;53.760;9.678;2024-03-25T11:13:28;10.87;58.04
65374;SHT31;52070;53.760;9.678;2024-03-25T11:15:55;11.15;56.70
65374;SHT31;52070;53.760;9.678;2024-03-25T11:18:24;11.46;57.46
65374;SHT31;52070;53.760;9.678;2024-03-25T11:21:07;11.08;55.46
65374;SHT31;52070;53.760;9.678;2024-03-25T11:23:38;10.61;57.41
65374;SHT31;52070;53.760;9.678;2024-03-25T11:26:20;10.92;57.48
65374;SHT31;52070;53.760;9.678;2024-03-25T11:28:46;11.09;57.48
65374;SHT31;52070;53.760;9.678;2024-03-25T11:31:12;10.89;57.31
65374;SHT31;52070;53.760;9.678;2024-03-25T11:33:39;10.14;56.57
65374;SHT31;52070;53.760;9.678;2024-03-25T11:36:05;9.76;58.95
65374;SHT31;52070;53.760;9.678;2024-03-25T11:38:31;9.59;57.85
65374;SHT31;52070;53.760;9.678;2024-03-25T11:40:57;9.31;61.75
65374;SHT31;52070;53.760;9.678;2024-03-25T11:43:23;9.20;63.74
65374;SHT31;52070;53.760;9.678;2024-03-25T11:45:50;9.96;62.78
65374;SHT31;52070;53.760;9.678;2024-03-25T11:48:16;9.52;61.91
65374;SHT31;52070;53.760;9.678;2024-03-25T11:50:45;10.03;61.24
65374;SHT31;52070;53.760;9.678;2024-03-25T11:53:13;11.19;61.74
65374;SHT31;52070;53.760;9.678;2024-03-25T11:55:40;11.15;57.38
65374;SHT31;52070;53.760;9.678;2024-03-25T11:58:07;10.40;59.42
65374;SHT31;52070;53.760;9.678;2024-03-25T12:00:33;9.76;61.56
65374;SHT31;52070;53.760;9.678;2024-03-25T12:03:00;9.45;63.30
65374;SHT31;52070;53.760;9.678;2024-03-25T12:05:26;9.22;63.90
65374;SHT31;52070;53.760;9.678;2024-03-25T12:07:52;9.20;65.15
65374;SHT31;52070;53.760;9.678;2024-03-25T12:10:17;8.91;65.12
65374;SHT31;52070;53.760;9.678;2024-03-25T12:13:02;8.88;66.20
65374;SHT31;52070;53.760;9.678;2024-03-25T12:15:28;8.64;65.35
65374;SHT31;52070;53.760;9.678;2024-03-25T12:17:54;8.77;68.03
65374;SHT31;52070;53.760;9.678;2024-03-25T12:20:20;9.18;67.11
65374;SHT31;52070;53.760;9.678;2024-03-25T12:22:48;9.12;67.15
65374;SHT31;52070;53.760;9.678;2024-03-25T12:25:14;8.87;68.87
65374;SHT31;52070;53.760;9.678;2024-03-25T12:27:40;8.59;67.13
65374;SHT31;52070;53.760;9.678;2024-03-25T12:32:36;8.25;66.86
65374;SHT31;52070;53.760;9.678;2024-03-25T12:35:05;8.60;68.78
65374;SHT31;52070;53.760;9.678;2024-03-25T12:37:32;9.46;67.19
65374;SHT31;52070;53.760;9.678;2024-03-25T12:39:58;10.36;65.80
65374;SHT31;52070;53.760;9.678;2024-03-25T12:42:24;10.47;60.35
65374;SHT31;52070;53.760;9.678;2024-03-25T12:44:51;10.44;59.98
65374;SHT31;52070;53.760;9.678;2024-03-25T12:47:17;10.51;57.89
65374;SHT31;52070;53.760;9.678;2024-03-25T12:49:43;10.34;58.29
65374;SHT31;52070;53.760;9.678;2024-03-25T12:52:10;10.94;59.31
65374;SHT31;52070;53.760;9.678;2024-03-25T12:54:36;11.39;55.45
65374;SHT31;52070;53.760;9.678;2024-03-25T12:57:02;11.77;54.98
65374;SHT31;52070;53.760;9.678;2024-03-25T12:59:28;11.58;56.35
65374;SHT31;52070;53.760;9.678;2024-03-25T13:01:54;11.42;55.09
65374;SHT31;52070;53.760;9.678;2024-03-25T13:04:20;11.39;55.95
65374;SHT31;52070;53.760;9.678;2024-03-25T13:06:46;11.67;57.15
65374;SHT31;52070;53.760;9.678;2024-03-25T13:09:12;11.90;55.11
65374;SHT31;52070;53.760;9.678;2024-03-25T13:11:38;12.38;58.09
65374;SHT31;52070;53.760;9.678;2024-03-25T13:14:04;12.25;55.98
65374;SHT31;52070;53.760;9.678;2024-03-25T13:16:30;11.97;56.35
65374;SHT31;52070;53.760;9.678;2024-03-25T13:18:56;11.87;55.81
65374;SHT31;52070;53.760;9.678;2024-03-25T13:21:22;11.59;57.35
65374;SHT31;52070;53.760;9.678;2024-03-25T13:23:48;12.16;56.37
65374;SHT31;52070;53.760;9.678;2024-03-25T13:26:14;12.54;54.77
65374;SHT31;52070;53.760;9.678;2024-03-25T13:28:40;12.31;53.84
65374;SHT31;52070;53.760;9.678;2024-03-25T13:31:05;12.00;53.87
65374;SHT31;52070;53.760;9.678;2024-03-25T13:33:31;12.40;54.37
65374;SHT31;52070;53.760;9.678;2024-03-25T13:35:57;12.35;54.21
65374;SHT31;52070;53.760;9.678;2024-03-25T13:38:23;12.52;54.48
65374;SHT31;52070;53.760;9.678;2024-03-25T13:40:49;11.74;53.19
65374;SHT31;52070;53.760;9.678;2024-03-25T13:43:15;12.00;54.22
65374;SHT31;52070;53.760;9.678;2024-03-25T13:45:47;12.30;53.56
65374;SHT31;52070;53.760;9.678;2024-03-25T13:48:15;12.30;52.93
65374;SHT31;52070;53.760;9.678;2024-03-25T13:50:41;12.49;53.79
65374;SHT31;52070;53.760;9.678;2024-03-25T13:53:08;12.93;52.24
65374;SHT31;52070;53.760;9.678;2024-03-25T13:55:34;12.96;52.61
65374;SHT31;52070;53.760;9.678;2024-03-25T13:58:00;12.82;53.03
65374;SHT31;52070;53.760;9.678;2024-03-25T14:00:26;13.00;49.76
65374;SHT31;52070;53.760;9.678;2024-03-25T14:02:52;13.00;51.28
65374;SHT31;52070;53.760;9.678;2024-03-25T14:05:18;13.24;50.48
65374;SHT31;52070;53.760;9.678;2024-03-25T14:07:44;13.12;50.60
65374;SHT31;52070;53.760;9.678;2024-03-25T14:10:10;13.13;49.43
65374;SHT31;52070;53.760;9.678;2024-03-25T14:12:37;12.49;52.19
65374;SHT31;52070;53.760;9.678;2024-03-25T14:15:04;12.79;51.67
65374;SHT31;52070;53.760;9.678;2024-03-25T14:17:30;13.20;51.40
65374;SHT31;52070;53.760;9.678;2024-03-25T14:19:56;13.66;50.54
65374;SHT31;52070;53.760;9.678;2024-03-25T14:22:22;13.38;49.60
65374;SHT31;52070;53.760;9.678;2024-03-25T14:24:48;13.27;48.16
65374;SHT31;52070;53.760;9.678;2024-03-25T14:27:14;13.27;48.62
65374;SHT31;52070;53.760;9.678;2024-03-25T14:29:40;12.81;50.77
65374;SHT31;52070;53.760;9.678;2024-03-25T14:32:08;12.91;50.74
65374;SHT31;52070;53.760;9.678;2024-03-25T14:34:34;13.23;49.72
65374;SHT31;52070;53.760;9.678;2024-03-25T14:37:00;13.16;50.10
65374;SHT31;52070;53.760;9.678;2024-03-25T14:39:26;13.06;49.94
65374;SHT31;52070;53.760;9.678;2024-03-25T14:41:52;13.27;51.02
65374;SHT31;52070;53.760;9.678;2024-03-25T14:44:18;13.35;50.81
65374;SHT31;52070;53.760;9.678;2024-03-25T14:46:44;13.08;48.86
65374;SHT31;52070;53.760;9.678;2024-03-25T14:49:09;12.82;49.85
65374;SHT31;52070;53.760;9.678;2024-03-25T14:51:35;13.33;50.97
65374;SHT31;52070;53.760;9.678;2024-03-25T14:54:01;13.77;50.31
65374;SHT31;52070;53.760;9.678;2024-03-25T14:56:27;12.95;48.08
65374;SHT31;52070;53.760;9.678;2024-03-25T14:58:53;12.25;50.37
65374;SHT31;52070;53.760;9.678;2024-03-25T15:01:19;12.93;53.36
65374;SHT31;52070;53.760;9.678;2024-03-25T15:03:45;13.40;50.56
65374;SHT31;52070;53.760;9.678;2024-03-25T15:06:11;13.60;50.14
65374;SHT31;52070;53.760;9.678;2024-03-25T15:08:37;13.38;49.95
65374;SHT31;52070;53.760;9.678;2024-03-25T15:11:03;13.23;50.94
65374;SHT31;52070;53.760;9.678;2024-03-25T15:13:29;12.52;49.43
65374;SHT31;52070;53.760;9.678;2024-03-25T15:15:56;11.94;52.89
65374;SHT31;52070;53.760;9.678;2024-03-25T15:18:22;12.31;53.06
65374;SHT31;52070;53.760;9.678;2024-03-25T15:20:59;12.52;51.85
65374;SHT31;52070;53.760;9.678;2024-03-25T15:23:25;12.69;52.02
65374;SHT31;52070;53.760;9.678;2024-03-25T15:25:51;12.95;52.89
65374;SHT31;52070;53.760;9.678;2024-03-25T15:28:17;12.42;50.89
65374;SHT31;52070;53.760;9.678;2024-03-25T15:30:43;12.59;53.42
65374;SHT31;52070;53.760;9.678;2024-03-25T15:33:09;12.72;52.61
65374;SHT31;52070;53.760;9.678;2024-03-25T15:35:35;12.24;53.07
65374;SHT31;52070;53.760;9.678;2024-03-25T15:38:01;11.65;54.57
65374;SHT31;52070;53.760;9.678;2024-03-25T15:40:27;11.46;55.31
65374;SHT31;52070;53.760;9.678;2024-03-25T15:42:53;11.69;56.14